sensor_id;sensor_type;location;lat;lon;timestamp;pressure;altitude;pressure_sealevel;temperature;humidity
12757;BME280;31601;48.042;12.240;2023-01-29T00:00:08;97073.75;;;1.68;68.62
12757;BME280;31601;48.042;12.240;2023-01-29T00:02:35;97072.44;;;1.63;68.40
12757;BME280;31601;48.042;12.240;2023-01-29T00:05:01;97080.84;;;1.53;68.67
12757;BME280;31601;48.042;12.240;2023-01-29T00:07:32;97077.09;;;1.57;68.62
12757;BME280;31601;48.042;12.240;2023-01-29T00:09:59;97090.75;;;1.59;68.33
12757;BME280;31601;48.042;12.240;2023-01-29T00:12:25;97083.28;;;1.68;68.58
12757;BME280;31601;48.042;12.240;2023-01-29T00:14:52;97074.72;;;1.67;68.43
12757;BME280;31601;48.042;12.240;2023-01-29T00:17:19;97083.47;;;1.77;68.29
12757;BME280;31601;48.042;12.240;2023-01-29T00:19:45;97089.06;;;1.84;68.38
12757;BME280;31601;48.042;12.240;2023-01-29T00:22:12;97081.78;;;1.89;68.42
12757;BME280;31601;48.042;12.240;2023-01-29T00:24:42;97074.94;;;1.88;67.72
12757;BME280;31601;48.042;12.240;2023-01-29T00:27:08;97078.25;;;1.90;67.98
12757;BME280;31601;48.042;12.240;2023-01-29T00:29:35;97086.53;;;1.95;67.93
12757;BME280;31601;48.042;12.240;2023-01-29T00:32:01;97081.34;;;1.95;68.15
12757;BME280;31601;48.042;12.240;2023-01-29T00:34:28;97079.69;;;1.94;67.94
12757;BME280;31601;48.042;12.240;2023-01-29T00:36:54;97081.41;;;1.70;68.31
12757;BME280;31601;48.042;12.240;2023-01-29T00:39:29;97080.16;;;1.75;68.37
12757;BME280;31601;48.042;12.240;2023-01-29T00:42:07;97075.53;;;1.68;68.44
12757;BME280;31601;48.042;12.240;2023-01-29T00:44:51;97079.13;;;1.78;68.45
12757;BME280;31601;48.042;12.240;2023-01-29T00:47:23;97094.06;;;1.61;68.59
12757;BME280;31601;48.042;12.240;2023-01-29T00:49:57;97104.72;;;1.57;68.98
12757;BME280;31601;48.042;12.240;2023-01-29T00:52:24;97095.69;;;1.75;68.32
12757;BME280;31601;48.042;12.240;2023-01-29T00:54:51;97098.88;;;1.79;68.47
12757;BME280;31601;48.042;12.240;2023-01-29T00:57:20;97089.69;;;1.75;68.66
12757;BME280;31601;48.042;12.240;2023-01-29T00:59:46;97094.00;;;1.87;68.35
12757;BME280;31601;48.042;12.240;2023-01-29T01:02:13;97093.78;;;1.90;68.57
12757;BME280;31601;48.042;12.240;2023-01-29T01:04:57;97096.66;;;1.99;68.23
12757;BME280;31601;48.042;12.240;2023-01-29T01:07:24;97101.84;;;1.99;68.31
12757;BME280;31601;48.042;12.240;2023-01-29T01:09:50;97103.72;;;1.96;68.53
12757;BME280;31601;48.042;12.240;2023-01-29T01:12:35;97106.78;;;2.02;68.30
12757;BME280;31601;48.042;12.240;2023-01-29T01:15:02;97106.31;;;1.96;68.26
12757;BME280;31601;48.042;12.240;2023-01-29T01:17:29;97101.41;;;2.05;68.29
12757;BME280;31601;48.042;12.240;2023-01-29T01:19:55;97106.34;;;2.08;68.24
12757;BME280;31601;48.042;12.240;2023-01-29T01:22:22;97102.84;;;2.09;68.30
12757;BME280;31601;48.042;12.240;2023-01-29T01:24:48;97096.59;;;2.11;68.23
12757;BME280;31601;48.042;12.240;2023-01-29T01:27:15;97097.78;;;2.07;68.05
12757;BME280;31601;48.042;12.240;2023-01-29T01:29:45;97095.63;;;2.01;68.50
12757;BME280;31601;48.042;12.240;2023-01-29T01:32:11;97098.00;;;2.04;68.19
12757;BME280;31601;48.042;12.240;2023-01-29T01:34:38;97102.84;;;2.09;68.37
12757;BME280;31601;48.042;12.240;2023-01-29T01:37:05;97098.47;;;2.09;68.28
12757;BME280;31601;48.042;12.240;2023-01-29T01:39:31;97104.59;;;2.08;68.16
12757;BME280;31601;48.042;12.240;2023-01-29T01:41:58;97090.59;;;2.11;68.10
12757;BME280;31601;48.042;12.240;2023-01-29T01:44:54;97090.81;;;2.08;67.98
12757;BME280;31601;48.042;12.240;2023-01-29T01:47:29;97087.53;;;2.06;68.21
12757;BME280;31601;48.042;12.240;2023-01-29T01:49:59;97096.00;;;2.08;68.28
12757;BME280;31601;48.042;12.240;2023-01-29T01:52:28;97101.44;;;1.92;68.66
12757;BME280;31601;48.042;12.240;2023-01-29T01:54:56;97098.44;;;1.98;68.47
12757;BME280;31601;48.042;12.240;2023-01-29T01:57:24;97096.66;;;1.99;68.51
12757;BME280;31601;48.042;12.240;2023-01-29T01:59:55;97103.06;;;2.06;68.74
12757;BME280;31601;48.042;12.240;2023-01-29T02:02:23;97101.63;;;2.02;68.75
12757;BME280;31601;48.042;12.240;2023-01-29T02:05:10;97103.94;;;1.93;68.72
12757;BME280;31601;48.042;12.240;2023-01-29T02:07:55;97099.34;;;1.97;68.42
12757;BME280;31601;48.042;12.240;2023-01-29T02:10:41;97106.19;;;1.98;68.71
12757;BME280;31601;48.042;12.240;2023-01-29T02:13:08;97097.31;;;1.89;68.88
12757;BME280;31601;48.042;12.240;2023-01-29T02:15:37;97100.09;;;1.86;69.07
12757;BME280;31601;48.042;12.240;2023-01-29T02:18:12;97112.47;;;1.70;69.57
12757;BME280;31601;48.042;12.240;2023-01-29T02:20:41;97105.06;;;1.89;69.18
12757;BME280;31601;48.042;12.240;2023-01-29T02:23:30;97106.09;;;2.00;68.70
12757;BME280;31601;48.042;12.240;2023-01-29T02:26:31;97113.19;;;2.09;68.85
12757;BME280;31601;48.042;12.240;2023-01-29T02:29:06;97113.78;;;2.12;68.42
12757;BME280;31601;48.042;12.240;2023-01-29T02:31:53;97117.94;;;2.15;68.13
12757;BME280;31601;48.042;12.240;2023-01-29T02:34:29;97112.75;;;2.15;68.29
12757;BME280;31601;48.042;12.240;2023-01-29T02:37:17;97109.44;;;2.13;68.10
12757;BME280;31601;48.042;12.240;2023-01-29T02:39:51;97114.81;;;2.10;68.16
12757;BME280;31601;48.042;12.240;2023-01-29T02:42:24;97107.59;;;2.15;67.69
12757;BME280;31601;48.042;12.240;2023-01-29T02:44:55;97104.59;;;2.08;67.68
12757;BME280;31601;48.042;12.240;2023-01-29T02:47:29;97106.56;;;2.05;67.85
12757;BME280;31601;48.042;12.240;2023-01-29T02:50:03;97115.25;;;2.04;67.99
12757;BME280;31601;48.042;12.240;2023-01-29T02:52:35;97113.63;;;2.03;67.75
12757;BME280;31601;48.042;12.240;2023-01-29T02:55:08;97099.47;;;1.95;67.91
12757;BME280;31601;48.042;12.240;2023-01-29T02:57:39;97102.88;;;1.96;67.83
12757;BME280;31601;48.042;12.240;2023-01-29T03:00:12;97108.03;;;1.96;67.84
12757;BME280;31601;48.042;12.240;2023-01-29T03:02:43;97110.78;;;1.82;67.91
12757;BME280;31601;48.042;12.240;2023-01-29T03:05:15;97111.41;;;1.72;68.02
12757;BME280;31601;48.042;12.240;2023-01-29T03:07:48;97105.66;;;1.69;68.21
12757;BME280;31601;48.042;12.240;2023-01-29T03:10:18;97106.06;;;1.63;68.17
12757;BME280;31601;48.042;12.240;2023-01-29T03:12:52;97106.78;;;1.65;68.30
12757;BME280;31601;48.042;12.240;2023-01-29T03:15:25;97093.63;;;1.68;68.28
12757;BME280;31601;48.042;12.240;2023-01-29T03:17:56;97084.00;;;1.70;68.31
12757;BME280;31601;48.042;12.240;2023-01-29T03:20:31;97086.59;;;1.70;68.24
12757;BME280;31601;48.042;12.240;2023-01-29T03:23:03;97085.66;;;1.71;68.32
12757;BME280;31601;48.042;12.240;2023-01-29T03:25:33;97096.22;;;1.68;68.28
12757;BME280;31601;48.042;12.240;2023-01-29T03:28:19;97093.22;;;1.74;68.18
12757;BME280;31601;48.042;12.240;2023-01-29T03:31:07;97094.44;;;1.68;68.75
12757;BME280;31601;48.042;12.240;2023-01-29T03:33:58;97092.41;;;1.73;68.08
12757;BME280;31601;48.042;12.240;2023-01-29T03:36:28;97091.31;;;1.76;68.46
12757;BME280;31601;48.042;12.240;2023-01-29T03:39:02;97086.16;;;1.76;68.15
12757;BME280;31601;48.042;12.240;2023-01-29T03:41:32;97091.31;;;1.76;68.34
12757;BME280;31601;48.042;12.240;2023-01-29T03:44:09;97092.78;;;1.80;67.99
12757;BME280;31601;48.042;12.240;2023-01-29T03:46:45;97084.91;;;1.82;67.95
12757;BME280;31601;48.042;12.240;2023-01-29T03:49:18;97085.22;;;1.77;68.23
12757;BME280;31601;48.042;12.240;2023-01-29T03:51:54;97087.22;;;1.73;68.26
12757;BME280;31601;48.042;12.240;2023-01-29T03:54:28;97091.53;;;1.73;68.18
12757;BME280;31601;48.042;12.240;2023-01-29T03:57:03;97096.50;;;1.76;68.11
12757;BME280;31601;48.042;12.240;2023-01-29T03:59:35;97093.41;;;1.71;68.20
12757;BME280;31601;48.042;12.240;2023-01-29T04:02:10;97091.75;;;1.70;68.32
12757;BME280;31601;48.042;12.240;2023-01-29T04:04:43;97087.22;;;1.73;68.28
12757;BME280;31601;48.042;12.240;2023-01-29T04:07:12;97082.84;;;1.74;68.21
12757;BME280;31601;48.042;12.240;2023-01-29T04:09:44;97081.81;;;1.76;68.45
12757;BME280;31601;48.042;12.240;2023-01-29T04:12:14;97085.22;;;1.77;68.37
12757;BME280;31601;48.042;12.240;2023-01-29T04:14:44;97076.34;;;1.81;68.33
12757;BME280;31601;48.042;12.240;2023-01-29T04:17:16;97065.97;;;1.81;68.11
12757;BME280;31601;48.042;12.240;2023-01-29T04:19:45;97072.91;;;1.81;68.27
12757;BME280;31601;48.042;12.240;2023-01-29T04:22:18;97061.72;;;1.80;68.13
12757;BME280;31601;48.042;12.240;2023-01-29T04:24:48;97056.44;;;1.82;68.01
12757;BME280;31601;48.042;12.240;2023-01-29T04:27:25;97060.06;;;1.79;68.38
12757;BME280;31601;48.042;12.240;2023-01-29T04:30:03;97054.19;;;1.77;68.23
12757;BME280;31601;48.042;12.240;2023-01-29T04:32:40;97052.09;;;1.82;68.24
12757;BME280;31601;48.042;12.240;2023-01-29T04:35:25;97054.78;;;1.81;68.14
12757;BME280;31601;48.042;12.240;2023-01-29T04:38:01;97055.22;;;1.74;68.14
12757;BME280;31601;48.042;12.240;2023-01-29T04:40:38;97059.50;;;1.63;68.44
12757;BME280;31601;48.042;12.240;2023-01-29T04:43:12;97065.41;;;1.65;68.32
12757;BME280;31601;48.042;12.240;2023-01-29T04:45:59;97072.22;;;1.66;68.25
12757;BME280;31601;48.042;12.240;2023-01-29T04:48:35;97069.66;;;1.66;68.08
12757;BME280;31601;48.042;12.240;2023-01-29T04:51:11;97065.28;;;1.66;68.04
12757;BME280;31601;48.042;12.240;2023-01-29T04:53:46;97066.53;;;1.60;68.08
12757;BME280;31601;48.042;12.240;2023-01-29T04:56:18;97065.63;;;1.61;68.09
12757;BME280;31601;48.042;12.240;2023-01-29T04:58:48;97065.81;;;1.58;68.25
12757;BME280;31601;48.042;12.240;2023-01-29T05:01:18;97070.22;;;1.32;68.63
12757;BME280;31601;48.042;12.240;2023-01-29T05:03:49;97064.94;;;1.34;68.67
12757;BME280;31601;48.042;12.240;2023-01-29T05:06:17;97054.56;;;1.47;68.21
12757;BME280;31601;48.042;12.240;2023-01-29T05:08:46;97068.75;;;1.41;68.23
12757;BME280;31601;48.042;12.240;2023-01-29T05:11:15;97065.97;;;1.44;68.28
12757;BME280;31601;48.042;12.240;2023-01-29T05:13:43;97061.13;;;1.39;68.37
12757;BME280;31601;48.042;12.240;2023-01-29T05:16:18;97055.84;;;1.41;68.48
12757;BME280;31601;48.042;12.240;2023-01-29T05:18:47;97065.25;;;1.29;68.58
12757;BME280;31601;48.042;12.240;2023-01-29T05:21:13;97073.03;;;1.16;69.31
12757;BME280;31601;48.042;12.240;2023-01-29T05:23:40;97079.63;;;1.33;68.94
12757;BME280;31601;48.042;12.240;2023-01-29T05:26:17;97082.41;;;1.17;69.13
12757;BME280;31601;48.042;12.240;2023-01-29T05:29:01;97089.97;;;1.20;69.19
12757;BME280;31601;48.042;12.240;2023-01-29T05:31:28;97099.47;;;0.81;70.32
12757;BME280;31601;48.042;12.240;2023-01-29T05:33:56;97098.44;;;0.84;70.60
12757;BME280;31601;48.042;12.240;2023-01-29T05:36:22;97103.41;;;1.00;70.36
12757;BME280;31601;48.042;12.240;2023-01-29T05:38:49;97107.75;;;1.12;69.81
12757;BME280;31601;48.042;12.240;2023-01-29T05:41:16;97113.53;;;1.03;69.96
12757;BME280;31601;48.042;12.240;2023-01-29T05:43:42;97093.91;;;1.13;69.88
12757;BME280;31601;48.042;12.240;2023-01-29T05:46:08;97091.53;;;1.10;69.91
12757;BME280;31601;48.042;12.240;2023-01-29T05:48:35;97098.13;;;1.14;70.03
12757;BME280;31601;48.042;12.240;2023-01-29T05:51:03;97099.50;;;1.07;70.33
12757;BME280;31601;48.042;12.240;2023-01-29T05:53:30;97114.16;;;0.94;70.92
12757;BME280;31601;48.042;12.240;2023-01-29T05:55:59;97102.09;;;1.07;70.34
12757;BME280;31601;48.042;12.240;2023-01-29T05:58:26;97114.91;;;1.09;70.53
12757;BME280;31601;48.042;12.240;2023-01-29T06:00:53;97117.66;;;0.93;70.94
12757;BME280;31601;48.042;12.240;2023-01-29T06:03:19;97113.44;;;0.92;71.14
12757;BME280;31601;48.042;12.240;2023-01-29T06:05:46;97111.69;;;1.05;70.78
12757;BME280;31601;48.042;12.240;2023-01-29T06:08:13;97112.53;;;1.05;70.89
12757;BME280;31601;48.042;12.240;2023-01-29T06:10:40;97108.81;;;1.22;70.42
12757;BME280;31601;48.042;12.240;2023-01-29T06:13:06;97110.03;;;1.30;70.21
12757;BME280;31601;48.042;12.240;2023-01-29T06:15:33;97105.25;;;1.23;70.46
12757;BME280;31601;48.042;12.240;2023-01-29T06:17:59;97098.66;;;1.19;70.71
12757;BME280;31601;48.042;12.240;2023-01-29T06:20:26;97100.63;;;1.29;70.28
12757;BME280;31601;48.042;12.240;2023-01-29T06:22:52;97103.19;;;1.41;69.95
12757;BME280;31601;48.042;12.240;2023-01-29T06:25:20;97105.47;;;1.46;69.89
12757;BME280;31601;48.042;12.240;2023-01-29T06:27:49;97104.84;;;1.55;69.65
12757;BME280;31601;48.042;12.240;2023-01-29T06:30:16;97113.31;;;1.57;69.61
12757;BME280;31601;48.042;12.240;2023-01-29T06:32:42;97111.34;;;1.61;69.77
12757;BME280;31601;48.042;12.240;2023-01-29T06:35:09;97113.63;;;1.66;69.57
12757;BME280;31601;48.042;12.240;2023-01-29T06:37:35;97113.63;;;1.66;69.67
12757;BME280;31601;48.042;12.240;2023-01-29T06:40:02;97116.69;;;1.71;69.49
12757;BME280;31601;48.042;12.240;2023-01-29T06:42:29;97112.25;;;1.73;69.21
12757;BME280;31601;48.042;12.240;2023-01-29T06:44:56;97101.88;;;1.73;69.37
12757;BME280;31601;48.042;12.240;2023-01-29T06:47:26;97104.06;;;1.79;69.48
12757;BME280;31601;48.042;12.240;2023-01-29T06:49:53;97105.13;;;1.76;69.26
12757;BME280;31601;48.042;12.240;2023-01-29T06:52:19;97111.91;;;1.77;69.13
12757;BME280;31601;48.042;12.240;2023-01-29T06:54:45;97111.81;;;1.79;69.19
12757;BME280;31601;48.042;12.240;2023-01-29T06:57:12;97114.13;;;1.71;69.23
12757;BME280;31601;48.042;12.240;2023-01-29T06:59:40;97122.38;;;1.76;69.28
12757;BME280;31601;48.042;12.240;2023-01-29T07:02:07;97109.00;;;1.82;69.15
12757;BME280;31601;48.042;12.240;2023-01-29T07:04:34;97117.09;;;1.90;69.13
12757;BME280;31601;48.042;12.240;2023-01-29T07:07:01;97106.41;;;1.95;68.76
12757;BME280;31601;48.042;12.240;2023-01-29T07:09:28;97111.91;;;1.90;68.73
12757;BME280;31601;48.042;12.240;2023-01-29T07:11:54;97097.31;;;1.89;68.84
12757;BME280;31601;48.042;12.240;2023-01-29T07:14:21;97105.66;;;1.93;68.87
12757;BME280;31601;48.042;12.240;2023-01-29T07:16:49;97108.38;;;1.91;68.64
12757;BME280;31601;48.042;12.240;2023-01-29T07:19:15;97110.75;;;1.94;68.95
12757;BME280;31601;48.042;12.240;2023-01-29T07:21:42;97107.81;;;1.99;68.82
12757;BME280;31601;48.042;12.240;2023-01-29T07:24:08;97102.66;;;1.99;68.91
12757;BME280;31601;48.042;12.240;2023-01-29T07:26:36;97101.72;;;2.00;68.92
12757;BME280;31601;48.042;12.240;2023-01-29T07:29:03;97107.38;;;2.05;68.96
12757;BME280;31601;48.042;12.240;2023-01-29T07:31:30;97104.09;;;2.03;68.83
12757;BME280;31601;48.042;12.240;2023-01-29T07:33:57;97094.22;;;2.08;68.79
12757;BME280;31601;48.042;12.240;2023-01-29T07:36:24;97088.84;;;2.11;68.66
12757;BME280;31601;48.042;12.240;2023-01-29T07:38:51;97088.50;;;2.16;68.78
12757;BME280;31601;48.042;12.240;2023-01-29T07:41:18;97089.25;;;2.18;68.41
12757;BME280;31601;48.042;12.240;2023-01-29T07:43:44;97079.47;;;2.22;68.58
12757;BME280;31601;48.042;12.240;2023-01-29T07:46:10;97083.72;;;2.23;68.55
12757;BME280;31601;48.042;12.240;2023-01-29T07:48:37;97087.72;;;2.27;68.55
12757;BME280;31601;48.042;12.240;2023-01-29T07:51:05;97082.44;;;2.28;68.27
12757;BME280;31601;48.042;12.240;2023-01-29T07:53:32;97081.19;;;2.34;68.29
12757;BME280;31601;48.042;12.240;2023-01-29T07:55:58;97083.44;;;2.39;68.11
12757;BME280;31601;48.042;12.240;2023-01-29T07:58:25;97081.56;;;2.41;68.07
12757;BME280;31601;48.042;12.240;2023-01-29T08:00:51;97080.19;;;2.48;68.18
12757;BME280;31601;48.042;12.240;2023-01-29T08:03:18;97079.03;;;2.52;67.77
12757;BME280;31601;48.042;12.240;2023-01-29T08:05:45;97075.47;;;2.53;68.02
12757;BME280;31601;48.042;12.240;2023-01-29T08:08:13;97077.84;;;2.56;67.83
12757;BME280;31601;48.042;12.240;2023-01-29T08:10:41;97077.63;;;2.59;67.50
12757;BME280;31601;48.042;12.240;2023-01-29T08:13:08;97084.81;;;2.67;67.77
12757;BME280;31601;48.042;12.240;2023-01-29T08:15:36;97083.31;;;2.64;67.58
12757;BME280;31601;48.042;12.240;2023-01-29T08:18:03;97078.81;;;2.66;67.19
12757;BME280;31601;48.042;12.240;2023-01-29T08:20:30;97080.72;;;2.76;67.20
12757;BME280;31601;48.042;12.240;2023-01-29T08:23:00;97079.91;;;2.75;67.11
12757;BME280;31601;48.042;12.240;2023-01-29T08:25:28;97072.72;;;2.79;66.28
12757;BME280;31601;48.042;12.240;2023-01-29T08:27:55;97070.81;;;2.69;66.10
12757;BME280;31601;48.042;12.240;2023-01-29T08:30:22;97076.41;;;2.88;66.00
12757;BME280;31601;48.042;12.240;2023-01-29T08:32:49;97067.09;;;2.96;65.80
12757;BME280;31601;48.042;12.240;2023-01-29T08:35:15;97079.84;;;2.99;65.60
12757;BME280;31601;48.042;12.240;2023-01-29T08:37:41;97087.66;;;3.11;65.19
12757;BME280;31601;48.042;12.240;2023-01-29T08:40:09;97081.53;;;3.23;65.06
12757;BME280;31601;48.042;12.240;2023-01-29T08:42:39;97085.53;;;3.27;64.23
12757;BME280;31601;48.042;12.240;2023-01-29T08:45:07;97092.72;;;3.35;64.01
12757;BME280;31601;48.042;12.240;2023-01-29T08:47:34;97095.44;;;3.33;63.41
12757;BME280;31601;48.042;12.240;2023-01-29T08:50:00;97100.53;;;3.46;63.30
12757;BME280;31601;48.042;12.240;2023-01-29T08:52:27;97103.56;;;3.51;62.45
12757;BME280;31601;48.042;12.240;2023-01-29T08:54:53;97113.97;;;3.40;61.68
12757;BME280;31601;48.042;12.240;2023-01-29T08:57:20;97120.19;;;3.26;60.72
12757;BME280;31601;48.042;12.240;2023-01-29T08:59:47;97124.84;;;2.98;60.39
12757;BME280;31601;48.042;12.240;2023-01-29T09:02:14;97126.56;;;2.51;61.66
12757;BME280;31601;48.042;12.240;2023-01-29T09:04:40;97125.91;;;2.60;61.20
12757;BME280;31601;48.042;12.240;2023-01-29T09:07:07;97125.13;;;2.47;61.68
12757;BME280;31601;48.042;12.240;2023-01-29T09:09:33;97127.31;;;2.29;62.26
12757;BME280;31601;48.042;12.240;2023-01-29T09:12:01;97137.28;;;2.46;61.94
12757;BME280;31601;48.042;12.240;2023-01-29T09:14:28;97132.09;;;2.82;61.16
12757;BME280;31601;48.042;12.240;2023-01-29T09:16:56;97133.34;;;3.00;61.12
12757;BME280;31601;48.042;12.240;2023-01-29T09:19:25;97137.16;;;3.19;60.45
12757;BME280;31601;48.042;12.240;2023-01-29T09:21:51;97134.78;;;3.27;60.12
12757;BME280;31601;48.042;12.240;2023-01-29T09:24:21;97132.47;;;3.47;60.00
12757;BME280;31601;48.042;12.240;2023-01-29T09:26:47;97128.31;;;3.44;59.19
12757;BME280;31601;48.042;12.240;2023-01-29T09:29:14;97139.56;;;3.45;59.35
12757;BME280;31601;48.042;12.240;2023-01-29T09:31:40;97138.97;;;3.64;58.68
12757;BME280;31601;48.042;12.240;2023-01-29T09:34:08;97147.69;;;3.63;58.90
12757;BME280;31601;48.042;12.240;2023-01-29T09:36:36;97144.75;;;3.79;58.58
12757;BME280;31601;48.042;12.240;2023-01-29T09:39:03;97146.25;;;3.81;58.63
12757;BME280;31601;48.042;12.240;2023-01-29T09:41:41;97150.75;;;3.56;59.10
12757;BME280;31601;48.042;12.240;2023-01-29T09:44:19;97147.09;;;3.82;58.70
12757;BME280;31601;48.042;12.240;2023-01-29T09:46:50;97153.72;;;3.63;58.50
12757;BME280;31601;48.042;12.240;2023-01-29T09:49:24;97157.72;;;3.67;57.81
12757;BME280;31601;48.042;12.240;2023-01-29T09:51:56;97161.72;;;3.71;57.76
12757;BME280;31601;48.042;12.240;2023-01-29T09:54:28;97169.25;;;3.40;58.58
12757;BME280;31601;48.042;12.240;2023-01-29T09:56:56;97171.63;;;3.44;58.72
12757;BME280;31601;48.042;12.240;2023-01-29T09:59:25;97172.66;;;3.30;58.30
12757;BME280;31601;48.042;12.240;2023-01-29T10:01:59;97168.44;;;3.63;58.07
12757;BME280;31601;48.042;12.240;2023-01-29T10:04:46;97162.66;;;3.93;57.03
12757;BME280;31601;48.042;12.240;2023-01-29T10:07:25;97165.25;;;4.16;56.55
12757;BME280;31601;48.042;12.240;2023-01-29T10:10:12;97176.13;;;3.75;56.37
12757;BME280;31601;48.042;12.240;2023-01-29T10:12:52;97175.16;;;3.99;56.32
12757;BME280;31601;48.042;12.240;2023-01-29T10:15:50;97167.91;;;4.37;55.40
12757;BME280;31601;48.042;12.240;2023-01-29T10:18:34;97167.25;;;4.01;55.39
12757;BME280;31601;48.042;12.240;2023-01-29T10:21:16;97157.38;;;4.38;55.31
12757;BME280;31601;48.042;12.240;2023-01-29T10:23:48;97162.53;;;4.61;55.21
12757;BME280;31601;48.042;12.240;2023-01-29T10:26:20;97163.19;;;4.74;54.59
12757;BME280;31601;48.042;12.240;2023-01-29T10:28:50;97156.88;;;4.88;54.94
12757;BME280;31601;48.042;12.240;2023-01-29T10:31:21;97154.44;;;4.75;54.26
12757;BME280;31601;48.042;12.240;2023-01-29T10:33:53;97150.81;;;4.99;53.54
12757;BME280;31601;48.042;12.240;2023-01-29T10:36:28;97153.06;;;5.13;53.96
12757;BME280;31601;48.042;12.240;2023-01-29T10:38:57;97148.53;;;5.27;54.04
12757;BME280;31601;48.042;12.240;2023-01-29T10:41:53;97155.47;;;5.47;53.56
12757;BME280;31601;48.042;12.240;2023-01-29T10:44:32;97146.63;;;5.60;53.50
12757;BME280;31601;48.042;12.240;2023-01-29T10:47:16;97145.06;;;5.78;52.56
12757;BME280;31601;48.042;12.240;2023-01-29T10:49:59;97131.38;;;5.86;52.31
12757;BME280;31601;48.042;12.240;2023-01-29T10:52:37;97131.59;;;5.73;52.39
12757;BME280;31601;48.042;12.240;2023-01-29T10:55:17;97125.59;;;5.82;52.79
12757;BME280;31601;48.042;12.240;2023-01-29T10:57:55;97127.41;;;5.91;52.25
12757;BME280;31601;48.042;12.240;2023-01-29T11:00:27;97121.78;;;5.86;52.65
12757;BME280;31601;48.042;12.240;2023-01-29T11:02:56;97112.19;;;5.87;52.21
12757;BME280;31601;48.042;12.240;2023-01-29T11:05:26;97118.66;;;5.92;52.08
12757;BME280;31601;48.042;12.240;2023-01-29T11:08:04;97108.38;;;5.91;51.23
12757;BME280;31601;48.042;12.240;2023-01-29T11:10:36;97107.75;;;5.78;50.98
12757;BME280;31601;48.042;12.240;2023-01-29T11:13:07;97106.56;;;5.82;50.93
12757;BME280;31601;48.042;12.240;2023-01-29T11:15:38;97107.47;;;5.71;50.13
12757;BME280;31601;48.042;12.240;2023-01-29T11:18:06;97105.13;;;5.68;50.49
12757;BME280;31601;48.042;12.240;2023-01-29T11:20:36;97107.38;;;5.51;50.24
12757;BME280;31601;48.042;12.240;2023-01-29T11:23:03;97109.03;;;5.52;49.99
12757;BME280;31601;48.042;12.240;2023-01-29T11:25:30;97104.75;;;5.42;50.23
12757;BME280;31601;48.042;12.240;2023-01-29T11:27:58;97106.03;;;5.47;50.39
12757;BME280;31601;48.042;12.240;2023-01-29T11:30:27;97104.88;;;5.40;50.65
12757;BME280;31601;48.042;12.240;2023-01-29T11:33:04;97110.09;;;5.40;50.68
12757;BME280;31601;48.042;12.240;2023-01-29T11:35:32;97113.63;;;5.39;51.49
12757;BME280;31601;48.042;12.240;2023-01-29T11:38:13;97099.34;;;5.24;51.66
12757;BME280;31601;48.042;12.240;2023-01-29T11:40:43;97107.84;;;5.26;50.95
12757;BME280;31601;48.042;12.240;2023-01-29T11:43:15;97105.34;;;5.24;50.77
12757;BME280;31601;48.042;12.240;2023-01-29T11:45:43;97098.09;;;5.28;50.75
12757;BME280;31601;48.042;12.240;2023-01-29T11:48:14;97093.34;;;5.33;50.72
12757;BME280;31601;48.042;12.240;2023-01-29T11:50:41;97091.69;;;5.32;51.21
12757;BME280;31601;48.042;12.240;2023-01-29T11:53:22;97088.97;;;5.33;51.64
12757;BME280;31601;48.042;12.240;2023-01-29T11:55:50;97074.56;;;5.29;51.76
12757;BME280;31601;48.042;12.240;2023-01-29T11:58:19;97070.59;;;5.25;51.85
12757;BME280;31601;48.042;12.240;2023-01-29T12:00:49;97062.72;;;5.15;51.47
12757;BME280;31601;48.042;12.240;2023-01-29T12:03:30;97059.25;;;5.05;51.62
12757;BME280;31601;48.042;12.240;2023-01-29T12:06:01;97041.22;;;5.13;51.88
12757;BME280;31601;48.042;12.240;2023-01-29T12:08:33;97041.25;;;5.23;51.88
12757;BME280;31601;48.042;12.240;2023-01-29T12:11:08;97035.25;;;5.23;52.21
12757;BME280;31601;48.042;12.240;2023-01-29T12:13:35;97029.13;;;5.33;51.78
12757;BME280;31601;48.042;12.240;2023-01-29T12:16:18;97017.59;;;5.26;51.95
12757;BME280;31601;48.042;12.240;2023-01-29T12:18:50;97003.25;;;5.32;50.44
12757;BME280;31601;48.042;12.240;2023-01-29T12:21:23;96998.44;;;5.37;50.38
12757;BME280;31601;48.042;12.240;2023-01-29T12:23:58;96975.31;;;5.44;50.93
12757;BME280;31601;48.042;12.240;2023-01-29T12:26:30;96979.63;;;5.64;50.55
12757;BME280;31601;48.042;12.240;2023-01-29T12:29:12;96977.84;;;5.65;50.34
12757;BME280;31601;48.042;12.240;2023-01-29T12:31:48;96978.41;;;5.78;49.58
12757;BME280;31601;48.042;12.240;2023-01-29T12:34:22;96980.88;;;5.89;49.29
12757;BME280;31601;48.042;12.240;2023-01-29T12:36:57;96992.97;;;5.90;49.17
12757;BME280;31601;48.042;12.240;2023-01-29T12:39:26;96984.38;;;5.59;49.47
12757;BME280;31601;48.042;12.240;2023-01-29T12:41:56;96983.50;;;5.80;49.29
12757;BME280;31601;48.042;12.240;2023-01-29T12:44:29;96981.91;;;5.57;49.61
12757;BME280;31601;48.042;12.240;2023-01-29T12:46:59;96986.19;;;5.68;49.65
12757;BME280;31601;48.042;12.240;2023-01-29T12:49:31;96985.41;;;5.87;49.37
12757;BME280;31601;48.042;12.240;2023-01-29T12:52:03;96983.34;;;5.91;49.32
12757;BME280;31601;48.042;12.240;2023-01-29T12:54:38;96984.75;;;5.95;48.58
12757;BME280;31601;48.042;12.240;2023-01-29T12:57:13;96984.22;;;6.01;48.82
12757;BME280;31601;48.042;12.240;2023-01-29T12:59:44;96979.69;;;6.03;48.71
12757;BME280;31601;48.042;12.240;2023-01-29T13:02:23;96972.41;;;6.07;47.53
12757;BME280;31601;48.042;12.240;2023-01-29T13:04:59;96966.66;;;5.94;47.24
12757;BME280;31601;48.042;12.240;2023-01-29T13:07:36;96956.25;;;6.03;48.14
12757;BME280;31601;48.042;12.240;2023-01-29T13:10:14;96951.84;;;6.04;48.28
12757;BME280;31601;48.042;12.240;2023-01-29T13:12:52;96954.00;;;5.79;47.43
12757;BME280;31601;48.042;12.240;2023-01-29T13:15:23;96952.88;;;5.43;47.78
12757;BME280;31601;48.042;12.240;2023-01-29T13:17:55;96948.75;;;5.50;47.65
12757;BME280;31601;48.042;12.240;2023-01-29T13:20:26;96941.09;;;5.48;48.46